createdAt,value
2023-05-22T14:48:26.456Z,2.78
2023-05-22T14:53:31.046Z,2.50
2023-05-22T14:58:35.545Z,2.65
2023-05-22T15:03:41.555Z,2.83
2023-05-22T15:08:46.211Z,2.70
2023-05-22T15:13:50.917Z,2.40
2023-05-22T15:18:56.538Z,2.83
2023-05-22T15:24:01.362Z,2.70
2023-05-22T15:29:06.112Z,3.00
2023-05-22T15:34:11.951Z,2.78
2023-05-22T15:39:16.782Z,2.75
2023-05-22T15:44:21.048Z,3.55
2023-05-22T15:49:28.586Z,2.72
2023-05-22T15:54:34.430Z,3.08
2023-05-22T15:59:38.747Z,4.18
2023-05-22T16:04:44.306Z,3.05
2023-05-22T16:09:50.268Z,3.78
2023-05-22T16:15:00.211Z,3.10
2023-05-22T16:20:09.019Z,3.25
2023-05-22T16:25:13.839Z,3.50
2023-05-22T16:30:18.657Z,3.92
2023-05-22T16:35:24.381Z,3.22
2023-05-22T16:40:28.752Z,3.25
2023-05-22T16:45:33.179Z,3.85
2023-05-22T16:50:39.063Z,4.22
2023-05-22T16:55:43.665Z,3.85
2023-05-22T17:00:47.894Z,3.58
2023-05-22T17:10:58.134Z,4.30
2023-05-22T17:21:09.154Z,4.32
2023-05-22T17:26:14.640Z,3.97
2023-05-22T17:31:18.895Z,4.68
2023-05-22T17:36:24.599Z,5.00
2023-05-22T17:41:28.862Z,4.78
2023-05-22T17:46:33.217Z,4.65
2023-05-22T17:56:43.276Z,3.67
2023-05-22T18:01:48.022Z,4.28
2023-05-22T18:06:53.734Z,5.15
2023-05-22T18:12:00.836Z,4.88
2023-05-22T18:17:05.439Z,5.28
2023-05-22T18:22:10.997Z,5.47
2023-05-22T18:27:15.372Z,5.78
2023-05-22T18:32:19.580Z,5.60
2023-05-22T18:37:26.148Z,6.05
2023-05-22T18:42:30.392Z,5.35
2023-05-22T18:47:34.633Z,6.43
2023-05-22T18:52:40.935Z,6.20
2023-05-22T18:57:45.092Z,6.20
2023-05-22T19:02:49.294Z,5.47
2023-05-22T19:07:57.858Z,5.55
2023-05-22T19:13:02.287Z,7.03
2023-05-22T19:18:06.946Z,6.68
2023-05-22T19:23:13.765Z,6.03
2023-05-22T19:28:18.089Z,5.55
2023-05-22T19:33:25.419Z,4.50
2023-05-22T19:38:31.161Z,4.95
2023-05-22T19:43:35.590Z,6.00
2023-05-22T19:48:40.026Z,5.43
2023-05-22T19:53:45.637Z,4.93
2023-05-22T19:58:49.965Z,5.60
2023-05-22T20:03:56.425Z,5.65
2023-05-22T20:09:05.882Z,5.95
2023-05-22T20:14:11.884Z,6.25
2023-05-22T20:19:17.700Z,7.22
2023-05-22T20:24:25.124Z,6.80
2023-05-22T20:29:29.589Z,6.30
2023-05-22T20:34:34.033Z,6.75
2023-05-22T20:39:41.713Z,7.30
2023-05-22T20:44:46.333Z,6.97
2023-05-22T20:49:50.949Z,6.47
2023-05-22T20:54:56.967Z,6.43
2023-05-22T21:00:01.390Z,6.15
2023-05-22T21:05:07.886Z,6.05
2023-05-22T21:10:13.995Z,6.40
2023-05-22T21:15:19.013Z,6.40
2023-05-22T21:20:23.627Z,5.75
2023-05-22T21:25:29.168Z,6.60
2023-05-22T21:30:33.735Z,6.18
2023-05-22T21:35:38.400Z,5.97
2023-05-22T21:40:43.977Z,6.13
2023-05-22T21:45:48.427Z,6.13
2023-05-22T21:50:52.786Z,5.27
2023-05-22T21:55:58.559Z,6.13
2023-05-22T22:01:03.286Z,6.30
2023-05-22T22:06:08.350Z,6.15
2023-05-22T22:16:18.522Z,6.25
2023-05-22T22:21:22.813Z,6.30
2023-05-22T22:26:30.973Z,7.53
2023-05-22T22:31:36.132Z,6.43
2023-05-22T22:36:41.300Z,6.63
2023-05-22T22:41:46.849Z,6.90
2023-05-22T22:46:51.740Z,6.57
2023-05-22T22:51:56.591Z,7.47
2023-05-22T22:57:02.547Z,7.10
2023-05-22T23:02:07.120Z,7.07
2023-05-22T23:07:11.517Z,8.38
2023-05-22T23:12:17.144Z,6.50
2023-05-22T23:17:22.131Z,5.93
2023-05-22T23:22:26.346Z,6.28
2023-05-22T23:27:31.914Z,6.97
2023-05-22T23:32:36.360Z,6.88
2023-05-22T23:37:40.725Z,6.97
2023-05-22T23:42:46.489Z,6.68
2023-05-22T23:47:50.697Z,6.93
2023-05-22T23:52:55.238Z,6.68
2023-05-22T23:58:00.855Z,7.63
